This is the latest recevied weather packets stored in our database for station/object OSTR-WX. If no packets are shown the sender has not sent any weather packets the latest 10 day(s).
| Time | Temp. | Humidity | Pressure | Rain* | Wind** | Luminosity | Snow |
|---|---|---|---|---|---|---|---|
| 1777563062 | 15° C | 30% | 1028 hPa | - | - | - | - |
| 1777563058 | 15° C | 30% | 1028 hPa | - | - | - | - |
| 1777561151 | 17.22° C | 27% | 1027.8 hPa | - | - | - | - |
| 1777558275 | 16.11° C | 27% | 1028.3 hPa | - | - | - | - |
| 1777558273 | 16.11° C | 27% | 1028.3 hPa | - | - | - | - |
| 1777557318 | 15.56° C | 29% | 1028.4 hPa | - | - | - | - |
| 1777557316 | 15.56° C | 29% | 1028.4 hPa | - | - | - | - |
| 1777556359 | 15.56° C | 28% | 1028.5 hPa | - | - | - | - |
| 1777552533 | 15.56° C | 31% | 1029.2 hPa | - | - | - | - |
| 1777552531 | 15.56° C | 31% | 1029.2 hPa | - | - | - | - |
| 1777551577 | 15° C | 30% | 1029.6 hPa | - | - | - | - |
| 1777551574 | 15° C | 30% | 1029.6 hPa | - | - | - | - |
| 1777550624 | 15° C | 32% | 1029.6 hPa | - | - | - | - |
| 1777549662 | 15° C | 32% | 1029.9 hPa | - | - | - | - |
| 1777547747 | 15° C | 35% | 1030 hPa | - | - | - | - |
| 1777544878 | 13.33° C | 37% | 1030.6 hPa | - | - | - | - |
| 1777544875 | 13.33° C | 37% | 1030.6 hPa | - | - | - | - |
| 1777543920 | 13.33° C | 38% | 1030.7 hPa | - | - | - | - |
| 1777543918 | 13.33° C | 38% | 1030.7 hPa | - | - | - | - |
| 1777542967 | 12.78° C | 40% | 1031.2 hPa | - | - | - | - |
| 1777542961 | 12.78° C | 40% | 1031.2 hPa | - | - | - | - |
| 1777542961 | 12.78° C | 40% | 1031.2 hPa | - | - | - | - |
| 1777542007 | 12.22° C | 42% | 1031.5 hPa | - | - | - | - |
| 1777542004 | 12.22° C | 42% | 1031.5 hPa | - | - | - | - |
| 1777541053 | 11.67° C | 42% | 1031.5 hPa | - | - | - | - |
* Rain since midnight (hover to see other rain measurements)
** Current wind speed in m/s (hover to see current wind gust speed)